Airfield :
LOGIN :

Register | Disclaimer

   EN    FR    IT 

 










Legend :    VFR   Marginal VFR   IFR   Intensive IFR   Very Intensive IFR
Visi :
Ceiling :
>= 8 km
>= 3000ft
5 to 8 km
1000 to 3000 ft
1500m to 5 km
500 to 1000 ft
800 to 1500m
200 to 500 ft
< 800m
< 200 ft
Symbols :   Thunderstorms  Fog  Heavy snow  Heavy precipitations  Wind > 20 kt
SIGMETs :     Misc.  Thunderstorms  Icing  Turbulence  Mountain Waves  Volcanic Ashes







- Airport Elevation : 614 ft
- IATA code : CRL


EBCI - Charleroi

CURRENT METAR :
  • 240720Z 20010KT 8000 BKN003 BKN005 13/12 Q1022 TEMPO 2000 RADZ BKN002

EXPIRED METARs :
  • 240650Z 20012KT 3500 -RADZ BKN002 BKN003 13/12 Q1021 TEMPO 2000 RADZ BKN002
  • 240620Z 20009KT 5000 -DZ SCT002 BKN004 13/12 Q1022 TEMPO 2000 RADZ BKN002
  • 240550Z 20011KT 9000 SCT003 BKN005 13/12 Q1022 TEMPO 2000 RADZ BKN002
  • 240520Z 19009KT 5000 -DZ SCT003 BKN005 13/12 Q1021 TEMPO 2000 RADZ BKN002
  • 240450Z 20009KT 4000 -DZ FEW002 SCT003 BKN004 13/12 Q1021 TEMPO 2000 RADZ BKN002

TAF TAF EBCI
Valid from the 24 at 06:00 until the 25 at 12:00 UTC


240514Z 2406/2512 21007KT 4000 -DZ BR SCT003 BKN005
PROB40
TEMPO 2406/2412 2000 DZRA BKN003
BECMG 2415/2417 7000 NSW SCT010 BKN018
No reported NOTAMs for that airfield.



MET'MAP, your aeronautical weather chart ! - Copyright ORBIFLY December 2007 - Disclaimer

ORBIFLY MET'MAP TEAM :

Programming & Development : Alexandra Zaïnal
Concept & Development : Baudouin d'Aumeries
Co-Development & Prog : Marc-Olivier Méhu
Technical & hardware support : Manuel Goepfert

Contact : metmap@orbifly.com




SOURCES & CREDITS :

   NOAA